Time;durP1;ratioP1;P1;durP2;ratioP2;P2;SDS_P1;SDS_P2;PMS_P1;PMS_P2;Temp;Humidity;BMP_temperature;BMP_pressure;BME280_temperature;BME280_humidity;BME280_pressure;Samples;Min_cycle;Max_cycle;Signal;HPM_P1;HPM_P2
2021/09/27 00:02:06;;;;;;;9.93;8.77;;;16.40;99.90;;;;;;4935795;29;20488;-79
2021/09/27 00:04:32;;;;;;;9.90;8.95;;;16.40;99.90;;;;;;4936672;29;20059;-79
2021/09/27 00:06:58;;;;;;;9.73;8.80;;;16.30;99.90;;;;;;4936238;29;20035;-79
2021/09/27 00:09:32;;;;;;;9.57;8.63;;;16.30;99.90;;;;;;4936679;29;20024;-81
2021/09/27 00:11:58;;;;;;;9.73;8.75;;;16.30;99.90;;;;;;4935959;29;20119;-82
2021/09/27 00:14:24;;;;;;;9.68;8.68;;;16.30;99.90;;;;;;4935881;29;20059;-80
2021/09/27 00:16:49;;;;;;;9.65;8.27;;;16.20;99.90;;;;;;4937057;29;20028;-82
2021/09/27 00:19:15;;;;;;;9.77;8.77;;;16.20;99.90;;;;;;4935744;29;20031;-79
2021/09/27 00:21:41;;;;;;;9.48;8.50;;;16.20;99.90;;;;;;4935154;29;20032;-83
2021/09/27 00:24:06;;;;;;;11.88;9.68;;;16.10;99.90;;;;;;4935785;29;20484;-85
2021/09/27 00:26:32;;;;;;;9.70;8.70;;;16.10;99.90;;;;;;4935813;29;20019;-83
2021/09/27 00:28:58;;;;;;;10.52;9.52;;;16.10;99.90;;;;;;4934934;29;20166;-83
2021/09/27 00:31:24;;;;;;;10.57;9.48;;;16.10;99.90;;;;;;4936031;29;20114;-82
2021/09/27 00:33:50;;;;;;;11.95;9.57;;;16.10;99.90;;;;;;4935740;29;20063;-82
2021/09/27 00:36:17;;;;;;;10.40;9.20;;;16.00;99.90;;;;;;4934927;29;20390;-83
2021/09/27 00:38:42;;;;;;;10.57;9.57;;;16.00;99.90;;;;;;4935973;29;20101;-81
2021/09/27 00:41:13;;;;;;;9.60;8.63;;;16.00;99.90;;;;;;4935699;29;20048;-85
2021/09/27 00:43:41;;;;;;;10.07;9.00;;;16.00;99.90;;;;;;4935375;29;20515;-85
2021/09/27 00:46:11;;;;;;;9.50;8.63;;;15.90;99.90;;;;;;4934950;29;20142;-85
2021/09/27 00:48:38;;;;;;;10.23;9.23;;;15.90;99.90;;;;;;4935525;29;20028;-81
2021/09/27 00:51:17;;;;;;;11.48;9.85;;;15.90;99.90;;;;;;4934685;29;20486;-79
2021/09/27 00:54:04;;;;;;;9.95;8.88;;;15.90;99.90;;;;;;4935833;29;20024;-84
2021/09/27 00:56:45;;;;;;;9.63;8.63;;;15.90;99.90;;;;;;4934943;29;20082;-82
2021/09/27 00:59:11;;;;;;;8.68;7.78;;;15.90;99.90;;;;;;4936374;29;20036;-83
2021/09/27 01:01:37;;;;;;;8.88;7.97;;;15.90;99.90;;;;;;4936504;29;20036;-80
2021/09/27 01:04:04;;;;;;;8.43;7.55;;;15.90;99.90;;;;;;4934264;29;20110;-79
2021/09/27 01:06:54;;;;;;;8.95;8.15;;;15.80;99.90;;;;;;4935459;29;20032;-81
2021/09/27 01:09:52;;;;;;;8.07;7.30;;;15.80;99.90;;;;;;4935185;29;20148;-79
2021/09/27 01:12:48;;;;;;;7.35;6.70;;;15.80;99.90;;;;;;4934493;29;20432;-85
2021/09/27 01:15:45;;;;;;;8.40;7.57;;;15.80;99.90;;;;;;4934907;29;20415;-83
2021/09/27 01:18:19;;;;;;;7.72;7.03;;;15.80;99.90;;;;;;4934270;29;20034;-84
2021/09/27 01:21:06;;;;;;;8.25;7.45;;;15.80;99.90;;;;;;4935244;29;20120;-82
2021/09/27 01:24:29;;;;;;;7.55;6.93;;;15.80;99.90;;;;;;4936169;29;20047;-82
2021/09/27 01:27:47;;;;;;;7.97;7.18;;;15.70;99.90;;;;;;4876913;29;20033;-79
2021/09/27 01:30:45;;;;;;;7.30;6.60;;;15.70;99.90;;;;;;4861544;29;20103;-85
2021/09/27 01:33:27;;;;;;;7.88;6.88;;;15.70;99.90;;;;;;4949680;28;20125;-79
2021/09/27 01:36:01;;;;;;;7.50;6.80;;;15.70;99.90;;;;;;4934448;29;20420;-83
2021/09/27 01:38:46;;;;;;;7.53;6.70;;;15.70;99.90;;;;;;4935269;29;20039;-84
2021/09/27 01:41:35;;;;;;;7.43;6.80;;;15.70;99.90;;;;;;4934307;29;20431;-80
2021/09/27 01:44:18;;;;;;;7.32;6.63;;;15.60;99.90;;;;;;4934191;29;20040;-83
2021/09/27 01:46:50;;;;;;;7.85;7.00;;;15.60;99.90;;;;;;4933645;29;20126;-79
2021/09/27 01:49:29;;;;;;;7.65;6.85;;;15.70;99.90;;;;;;4935457;29;20448;-83
2021/09/27 01:52:07;;;;;;;8.00;7.18;;;15.60;99.90;;;;;;4934247;29;20486;-79
2021/09/27 01:54:41;;;;;;;8.25;7.35;;;15.60;99.90;;;;;;4935130;29;20040;-81
2021/09/27 01:57:44;;;;;;;7.82;7.10;;;15.60;99.90;;;;;;4934029;29;20499;-79
2021/09/27 02:00:21;;;;;;;7.53;6.70;;;15.60;99.90;;;;;;4911715;29;20032;-83
2021/09/27 02:02:51;;;;;;;9.35;7.47;;;15.50;99.90;;;;;;4934221;29;20035;-82
2021/09/27 02:05:32;;;;;;;10.45;7.85;;;15.50;99.90;;;;;;4934055;29;20117;-83
2021/09/27 02:08:06;;;;;;;8.75;7.78;;;15.50;99.90;;;;;;4933118;29;20050;-82
2021/09/27 02:10:54;;;;;;;7.93;7.13;;;15.50;99.90;;;;;;4934458;29;20484;-79
2021/09/27 02:13:30;;;;;;;8.32;7.32;;;15.50;99.90;;;;;;4933523;29;20059;-80
2021/09/27 02:16:13;;;;;;;8.00;7.22;;;15.40;99.90;;;;;;4933647;29;20023;-78
2021/09/27 02:18:50;;;;;;;7.57;6.82;;;15.40;99.90;;;;;;4933868;29;20032;-81
2021/09/27 02:21:21;;;;;;;8.18;7.35;;;15.40;99.90;;;;;;4933299;29;20032;-80
2021/09/27 02:23:59;;;;;;;8.25;7.38;;;15.40;99.90;;;;;;4934137;29;20042;-80
2021/09/27 02:26:25;;;;;;;9.57;7.68;;;15.30;99.90;;;;;;4935250;29;20028;-81
2021/09/27 02:28:51;;;;;;;8.10;7.40;;;15.40;99.90;;;;;;4934154;29;20507;-83
2021/09/27 02:31:38;;;;;;;8.60;7.80;;;15.40;99.90;;;;;;4933485;29;20020;-85
2021/09/27 02:34:11;;;;;;;9.07;8.18;;;15.40;99.90;;;;;;4933618;29;20024;-81
2021/09/27 02:36:59;;;;;;;8.48;7.63;;;15.40;99.90;;;;;;4932450;29;20071;-81
2021/09/27 02:39:28;;;;;;;8.23;6.80;;;15.40;99.90;;;;;;4935211;29;20032;-83
2021/09/27 02:42:03;;;;;;;7.28;6.68;;;15.30;99.90;;;;;;4932499;29;20036;-79
2021/09/27 02:44:29;;;;;;;8.02;7.28;;;15.30;99.90;;;;;;4934803;29;20035;-81
2021/09/27 02:46:56;;;;;;;7.72;7.03;;;15.30;99.90;;;;;;4933090;29;20118;-78
2021/09/27 02:49:27;;;;;;;8.00;6.70;;;15.30;99.90;;;;;;4933146;29;20023;-85
2021/09/27 02:51:55;;;;;;;8.10;7.30;;;15.30;99.90;;;;;;4933672;29;20116;-84
2021/09/27 02:54:35;;;;;;;8.30;7.28;;;15.30;99.90;;;;;;4934783;29;20020;-80
2021/09/27 02:57:36;;;;;;;7.57;6.78;;;15.30;99.90;;;;;;4932201;29;20488;-82
2021/09/27 03:00:09;;;;;;;8.93;8.13;;;15.30;99.90;;;;;;4933338;29;20431;-80
2021/09/27 03:02:39;;;;;;;7.65;6.95;;;15.30;99.90;;;;;;4934070;29;20039;-84
2021/09/27 03:05:10;;;;;;;8.45;7.47;;;15.20;99.90;;;;;;4934227;29;20031;-85
2021/09/27 03:07:56;;;;;;;8.45;7.65;;;15.20;99.90;;;;;;4933739;29;20122;-81
2021/09/27 03:10:47;;;;;;;8.18;7.38;;;15.20;99.90;;;;;;4932647;29;20032;-79
2021/09/27 03:13:52;;;;;;;7.88;7.07;;;15.20;99.90;;;;;;4933098;29;20035;-78
2021/09/27 03:16:54;;;;;;;9.50;7.07;;;15.20;99.90;;;;;;4933216;29;20028;-79
2021/09/27 03:19:39;;;;;;;8.07;7.25;;;15.20;99.90;;;;;;4921617;29;20071;-78
2021/09/27 03:22:24;;;;;;;8.43;6.82;;;15.20;99.90;;;;;;4932675;29;20492;-79
2021/09/27 03:25:07;;;;;;;8.45;7.45;;;15.20;99.90;;;;;;4932545;29;20028;-78
2021/09/27 03:27:36;;;;;;;7.22;6.53;;;15.10;99.90;;;;;;4933166;29;20028;-82
2021/09/27 03:30:10;;;;;;;8.43;7.57;;;15.10;99.90;;;;;;4932815;29;20170;-82
2021/09/27 03:32:35;;;;;;;8.30;7.47;;;15.10;99.90;;;;;;4932845;29;20488;-83
2021/09/27 03:35:43;;;;;;;8.02;6.90;;;15.10;99.90;;;;;;4932636;29;20027;-79
2021/09/27 03:38:36;;;;;;;8.18;7.38;;;15.00;99.90;;;;;;4933055;29;20050;-83
2021/09/27 03:41:14;;;;;;;7.28;6.57;;;15.00;99.90;;;;;;4934254;29;20031;-79
2021/09/27 03:43:40;;;;;;;7.95;7.25;;;15.00;99.90;;;;;;4933351;29;20072;-82
2021/09/27 03:46:27;;;;;;;6.80;6.10;;;15.00;99.90;;;;;;4931804;29;20552;-81
2021/09/27 03:49:04;;;;;;;7.75;7.05;;;15.00;99.90;;;;;;4935965;29;20074;-82
2021/09/27 03:51:36;;;;;;;8.20;7.22;;;15.00;99.90;;;;;;4936716;29;20118;-82
2021/09/27 03:54:15;;;;;;;8.75;7.85;;;15.00;99.90;;;;;;4937011;29;20027;-78
2021/09/27 03:56:46;;;;;;;7.60;6.90;;;14.90;99.90;;;;;;4936460;29;20020;-81
2021/09/27 03:59:27;;;;;;;7.50;6.80;;;14.90;99.90;;;;;;4936945;29;20440;-78
2021/09/27 04:02:07;;;;;;;7.53;6.82;;;14.90;99.90;;;;;;4936477;29;20043;-79
2021/09/27 04:04:54;;;;;;;8.13;7.28;;;14.90;99.90;;;;;;4936301;29;20020;-79
2021/09/27 04:07:35;;;;;;;8.55;7.18;;;15.00;99.90;;;;;;4935592;29;20477;-79
2021/09/27 04:10:07;;;;;;;8.70;7.13;;;15.10;99.90;;;;;;4935711;29;20036;-82
2021/09/27 04:13:00;;;;;;;8.70;7.32;;;15.10;99.90;;;;;;4937640;29;20063;-81
2021/09/27 04:15:40;;;;;;;7.90;6.80;;;15.20;99.90;;;;;;4937546;29;20495;-80
2021/09/27 04:18:36;;;;;;;7.97;7.18;;;15.20;99.90;;;;;;4936990;29;20476;-83
2021/09/27 04:21:17;;;;;;;6.88;6.25;;;15.30;99.90;;;;;;4934437;29;20048;-83
2021/09/27 04:23:57;;;;;;;8.00;7.25;;;15.30;99.90;;;;;;4937263;29;20086;-81
2021/09/27 04:26:36;;;;;;;8.50;7.43;;;15.40;99.90;;;;;;4936094;29;20079;-82
2021/09/27 04:29:23;;;;;;;10.43;8.90;;;15.50;99.90;;;;;;4934873;29;20028;-79
2021/09/27 04:32:20;;;;;;;8.80;7.78;;;15.60;99.90;;;;;;4935990;29;20175;-79
2021/09/27 04:34:54;;;;;;;8.60;7.80;;;15.60;99.90;;;;;;4935513;29;20539;-79
2021/09/27 04:37:22;;;;;;;10.23;9.23;;;15.60;99.90;;;;;;4935627;29;20039;-80
2021/09/27 04:39:49;;;;;;;10.15;9.13;;;15.70;99.90;;;;;;4935745;29;20032;-80
2021/09/27 04:42:25;;;;;;;8.80;8.00;;;15.70;99.90;;;;;;4935010;29;20036;-82
2021/09/27 04:45:09;;;;;;;9.32;8.32;;;15.80;99.90;;;;;;4935600;28;20052;-84
2021/09/27 04:47:43;;;;;;;8.60;7.72;;;15.80;99.90;;;;;;4935683;29;20529;-84
2021/09/27 04:50:37;;;;;;;8.65;7.85;;;15.80;99.90;;;;;;4934585;29;20028;-83
2021/09/27 04:53:21;;;;;;;7.90;7.10;;;15.80;99.90;;;;;;4936185;29;20403;-83
2021/09/27 04:56:07;;;;;;;9.43;7.85;;;15.90;99.90;;;;;;4934877;29;20396;-81
2021/09/27 04:59:16;;;;;;;8.57;7.78;;;15.90;99.90;;;;;;4934966;29;20144;-81
2021/09/27 05:02:05;;;;;;;9.48;7.70;;;16.00;99.90;;;;;;4924945;29;20040;-80
2021/09/27 05:04:36;;;;;;;8.38;7.57;;;15.90;99.90;;;;;;4935161;29;20027;-80
2021/09/27 05:07:32;;;;;;;8.43;7.63;;;16.00;99.90;;;;;;4934793;29;20540;-80
2021/09/27 05:10:38;;;;;;;8.45;7.65;;;16.00;99.90;;;;;;4935306;29;20034;-79
2021/09/27 05:13:21;;;;;;;8.27;7.53;;;16.00;99.90;;;;;;4934776;29;20428;-80
2021/09/27 05:15:56;;;;;;;8.68;7.85;;;16.10;99.90;;;;;;4930849;29;20028;-86
2021/09/27 05:18:28;;;;;;;9.15;8.35;;;16.00;99.90;;;;;;4963866;28;20032;-82
2021/09/27 05:20:56;;;;;;;;;;;16.00;99.90;;;;;;4934095;29;20024;-79
2021/09/27 05:23:37;;;;;;;8.68;6.97;;;16.00;99.90;;;;;;4933150;29;19915;-79
2021/09/27 05:26:40;;;;;;;8.40;7.43;;;16.00;99.90;;;;;;4934893;29;20379;-76
2021/09/27 05:29:31;;;;;;;8.57;7.28;;;15.90;99.90;;;;;;4934980;29;20028;-80
2021/09/27 05:32:32;;;;;;;10.05;8.10;;;15.80;99.90;;;;;;4932900;29;20502;-78
2021/09/27 05:35:03;;;;;;;8.13;7.43;;;15.80;99.90;;;;;;4928172;29;20373;-76
2021/09/27 05:37:34;;;;;;;9.20;8.35;;;15.80;99.90;;;;;;4915741;29;20032;-81
2021/09/27 05:40:06;;;;;;;11.10;9.20;;;15.80;99.90;;;;;;4914156;29;20351;-78
2021/09/27 05:42:50;;;;;;;;;;;15.80;99.90;;;;;;4930634;29;20070;-84
2021/09/27 05:45:29;;;;;;;9.02;7.82;;;15.80;99.90;;;;;;4940056;28;19923;-80
2021/09/27 05:48:12;;;;;;;9.18;8.27;;;15.70;99.90;;;;;;4933314;29;20037;-80
2021/09/27 05:51:20;;;;;;;12.05;8.90;;;15.70;99.90;;;;;;4933285;29;20453;-81
2021/09/27 05:54:07;;;;;;;9.18;7.95;;;15.80;99.90;;;;;;4842357;29;20073;-79
2021/09/27 05:56:45;;;;;;;9.50;8.30;;;15.80;99.90;;;;;;4858089;29;20094;-83
2021/09/27 05:59:19;;;;;;;9.35;8.25;;;15.80;99.90;;;;;;4911328;29;20519;-81
2021/09/27 06:02:19;;;;;;;8.77;7.82;;;15.80;99.90;;;;;;4933544;29;20080;-85
2021/09/27 06:05:17;;;;;;;9.75;8.77;;;15.90;99.90;;;;;;4935309;29;20392;-82
2021/09/27 06:08:01;;;;;;;9.40;8.35;;;15.90;99.90;;;;;;4934450;29;20027;-80
2021/09/27 06:10:41;;;;;;;9.95;8.85;;;15.90;99.90;;;;;;4933462;29;20046;-79
2021/09/27 06:13:31;;;;;;;9.68;8.57;;;16.00;99.90;;;;;;4932965;29;20122;-82
2021/09/27 06:16:10;;;;;;;9.32;8.38;;;16.00;99.90;;;;;;4933311;29;20473;-81
2021/09/27 06:19:19;;;;;;;9.02;8.15;;;16.00;99.90;;;;;;4934747;29;20054;-86
2021/09/27 06:21:57;;;;;;;9.48;8.38;;;16.10;99.90;;;;;;4933533;29;20028;-85
2021/09/27 06:24:53;;;;;;;9.52;8.63;;;16.10;99.90;;;;;;4935407;29;20034;-87
2021/09/27 06:27:46;;;;;;;10.07;8.93;;;16.20;99.90;;;;;;4934669;29;20532;-83
2021/09/27 06:30:30;;;;;;;10.48;9.40;;;16.30;99.90;;;;;;4934973;29;20469;-84
2021/09/27 06:33:16;;;;;;;9.60;8.70;;;16.30;99.90;;;;;;4934781;29;20031;-82
2021/09/27 06:35:44;;;;;;;9.82;8.82;;;16.30;99.90;;;;;;4934535;29;20031;-77
2021/09/27 06:38:12;;;;;;;11.27;8.82;;;16.30;99.90;;;;;;4933365;29;20083;-77
2021/09/27 06:40:42;;;;;;;9.75;8.85;;;16.40;99.90;;;;;;4934260;29;20023;-77
2021/09/27 06:43:15;;;;;;;10.88;9.77;;;16.50;99.90;;;;;;4934519;29;20065;-77
2021/09/27 06:45:40;;;;;;;8.88;7.95;;;16.50;99.90;;;;;;4933564;29;20040;-77
2021/09/27 06:48:06;;;;;;;9.48;8.60;;;16.50;99.90;;;;;;4933899;29;20551;-76
2021/09/27 06:50:32;;;;;;;9.82;8.82;;;16.60;99.90;;;;;;4934775;29;20042;-76
2021/09/27 06:52:57;;;;;;;9.00;8.10;;;16.60;99.90;;;;;;4934515;29;20020;-77
2021/09/27 06:55:23;;;;;;;8.95;8.07;;;16.60;99.90;;;;;;4934377;29;20059;-77
2021/09/27 06:57:48;;;;;;;8.77;7.85;;;16.70;99.90;;;;;;4933354;29;20024;-77
2021/09/27 07:00:14;;;;;;;9.70;8.10;;;16.70;99.90;;;;;;4933276;29;20388;-77
2021/09/27 07:02:41;;;;;;;9.43;8.25;;;16.80;99.90;;;;;;4932684;29;20043;-77
2021/09/27 07:05:07;;;;;;;9.65;8.75;;;16.80;99.90;;;;;;4934362;29;20039;-76
2021/09/27 07:07:34;;;;;;;9.23;8.38;;;16.90;99.90;;;;;;4933379;29;20024;-77
2021/09/27 07:09:59;;;;;;;11.30;9.10;;;16.90;99.90;;;;;;4932528;29;20106;-77
2021/09/27 07:12:25;;;;;;;8.68;7.88;;;16.90;99.90;;;;;;4934862;29;20111;-77
2021/09/27 07:14:51;;;;;;;9.13;8.23;;;17.00;99.90;;;;;;4933082;29;20022;-77
2021/09/27 07:17:16;;;;;;;8.82;8.00;;;17.00;99.90;;;;;;4933665;29;20036;-77
2021/09/27 07:19:42;;;;;;;9.25;8.45;;;17.10;99.90;;;;;;4934669;29;20476;-76
2021/09/27 07:22:08;;;;;;;10.05;8.80;;;17.10;99.90;;;;;;4934645;29;20032;-77
2021/09/27 07:24:35;;;;;;;9.82;8.82;;;17.20;99.90;;;;;;4936529;29;20096;-77
2021/09/27 07:27:00;;;;;;;9.05;8.25;;;17.20;99.90;;;;;;4936477;29;20027;-76
2021/09/27 07:29:26;;;;;;;8.60;7.70;;;17.30;99.90;;;;;;4938081;29;20032;-76
2021/09/27 07:31:52;;;;;;;9.50;8.70;;;17.30;99.90;;;;;;4936226;29;20020;-76
2021/09/27 07:34:18;;;;;;;9.02;8.13;;;17.30;99.90;;;;;;4936862;29;20082;-77
2021/09/27 07:36:44;;;;;;;23.73;9.35;;;17.30;99.90;;;;;;4938175;29;20455;-77
2021/09/27 07:39:10;;;;;;;8.15;7.45;;;17.40;99.90;;;;;;4935895;29;20031;-77
2021/09/27 07:41:36;;;;;;;11.45;8.93;;;17.50;99.90;;;;;;4936978;29;20019;-77
2021/09/27 07:44:02;;;;;;;9.52;8.48;;;17.60;99.90;;;;;;4935562;29;20392;-77
2021/09/27 07:46:28;;;;;;;11.00;8.85;;;17.70;99.90;;;;;;4937775;29;20052;-77
2021/09/27 07:48:53;;;;;;;10.27;9.30;;;17.70;99.90;;;;;;4936668;29;20035;-78
2021/09/27 07:51:20;;;;;;;9.73;8.73;;;17.70;99.90;;;;;;4937188;29;20027;-77
2021/09/27 07:53:46;;;;;;;9.48;8.57;;;17.80;99.90;;;;;;4937923;29;20469;-78
2021/09/27 07:56:11;;;;;;;9.93;8.63;;;17.80;99.90;;;;;;4936334;29;20038;-77
2021/09/27 07:58:37;;;;;;;9.35;8.45;;;17.80;99.90;;;;;;4935604;29;20023;-76
2021/09/27 08:01:03;;;;;;;8.57;7.88;;;17.80;99.90;;;;;;4936060;29;20032;-76
2021/09/27 08:03:28;;;;;;;10.15;9.13;;;17.90;99.90;;;;;;4937683;29;20035;-76
2021/09/27 08:05:54;;;;;;;10.60;9.60;;;17.90;99.90;;;;;;4935404;29;20047;-76
2021/09/27 08:08:20;;;;;;;10.30;9.23;;;18.00;99.90;;;;;;4936527;29;20031;-76
2021/09/27 08:10:46;;;;;;;10.30;9.27;;;18.10;99.90;;;;;;4936377;29;20027;-76
2021/09/27 08:13:14;;;;;;;10.10;9.13;;;18.10;99.90;;;;;;4935442;29;20024;-76
2021/09/27 08:15:43;;;;;;;9.88;8.98;;;18.10;99.90;;;;;;4937385;29;20027;-76
2021/09/27 08:18:10;;;;;;;8.93;8.05;;;18.20;99.90;;;;;;4937062;29;20031;-76
2021/09/27 08:20:43;;;;;;;10.23;9.13;;;18.20;99.90;;;;;;4936889;29;20031;-77
2021/09/27 08:23:09;;;;;;;9.07;8.18;;;18.30;99.90;;;;;;4936946;29;20390;-76
2021/09/27 08:25:37;;;;;;;9.40;8.50;;;18.30;99.90;;;;;;4937295;29;20024;-76
2021/09/27 08:28:03;;;;;;;9.50;8.57;;;18.40;99.90;;;;;;4934914;29;20024;-77
2021/09/27 08:30:34;;;;;;;10.57;9.32;;;18.50;99.90;;;;;;4935994;29;20031;-77
2021/09/27 08:33:00;;;;;;;9.40;8.40;;;18.50;99.90;;;;;;4936349;29;20452;-76
2021/09/27 08:35:29;;;;;;;9.75;8.77;;;18.60;99.90;;;;;;4935473;29;20059;-76
2021/09/27 08:37:55;;;;;;;9.55;8.50;;;18.70;99.90;;;;;;4935329;29;20436;-77
2021/09/27 08:41:00;;;;;;;9.30;8.15;;;18.70;99.90;;;;;;4934992;29;20024;-77
2021/09/27 08:43:53;;;;;;;8.43;7.63;;;18.90;99.90;;;;;;4935515;29;20043;-77
2021/09/27 08:46:39;;;;;;;9.50;8.50;;;18.90;99.90;;;;;;4935433;29;20055;-76
2021/09/27 08:49:33;;;;;;;9.32;8.43;;;18.90;99.90;;;;;;4935933;29;20035;-77
2021/09/27 08:51:59;;;;;;;8.77;7.97;;;18.90;99.90;;;;;;4935052;29;20470;-77
2021/09/27 08:54:29;;;;;;;8.98;7.68;;;18.90;99.90;;;;;;4936174;29;20488;-77
2021/09/27 08:57:09;;;;;;;8.98;8.00;;;19.00;99.90;;;;;;4936251;29;20030;-77
2021/09/27 08:59:42;;;;;;;8.57;7.50;;;19.00;99.90;;;;;;4935634;29;20075;-77
2021/09/27 09:02:35;;;;;;;8.50;7.70;;;19.10;99.90;;;;;;4934236;29;20039;-78
2021/09/27 09:05:20;;;;;;;9.02;7.82;;;19.20;99.90;;;;;;4935194;29;20480;-78
2021/09/27 09:08:09;;;;;;;8.85;7.95;;;19.30;99.90;;;;;;4935276;29;20027;-77
2021/09/27 09:10:39;;;;;;;8.70;7.80;;;19.30;99.90;;;;;;4935797;29;20107;-77
2021/09/27 09:13:06;;;;;;;9.10;8.30;;;19.30;99.90;;;;;;4936260;29;20058;-78
2021/09/27 09:15:35;;;;;;;8.75;7.85;;;19.30;99.90;;;;;;4934528;29;20027;-78
2021/09/27 09:18:10;;;;;;;9.75;8.02;;;19.30;99.90;;;;;;4935948;29;20016;-78
2021/09/27 09:20:42;;;;;;;8.80;7.90;;;19.30;99.90;;;;;;4937132;29;20043;-78
2021/09/27 09:23:08;;;;;;;11.52;8.35;;;19.30;99.90;;;;;;4934594;29;20039;-78
2021/09/27 09:25:38;;;;;;;10.52;7.85;;;19.20;99.90;;;;;;4934785;29;20082;-77
2021/09/27 09:28:08;;;;;;;8.43;7.63;;;19.30;99.90;;;;;;4934630;29;20027;-78
2021/09/27 09:30:53;;;;;;;8.98;8.13;;;19.30;99.90;;;;;;4934303;29;20116;-77
2021/09/27 09:33:37;;;;;;;8.13;7.43;;;19.40;99.90;;;;;;4934792;29;20028;-78
2021/09/27 09:36:05;;;;;;;15.55;7.50;;;19.50;99.90;;;;;;4934211;29;20027;-77
2021/09/27 09:38:36;;;;;;;11.38;7.47;;;19.50;99.90;;;;;;4935560;29;20024;-75
2021/09/27 09:41:03;;;;;;;9.30;8.30;;;19.50;99.90;;;;;;4934501;29;20387;-75
2021/09/27 09:43:35;;;;;;;8.70;7.90;;;19.50;99.90;;;;;;4935218;29;20115;-77
2021/09/27 09:46:29;;;;;;;8.25;7.45;;;19.60;99.90;;;;;;4933417;29;20048;-78
2021/09/27 09:49:12;;;;;;;7.57;6.88;;;19.70;99.90;;;;;;4934329;29;20027;-77
2021/09/27 09:51:38;;;;;;;9.50;7.13;;;19.90;99.90;;;;;;4933770;29;20024;-77
2021/09/27 09:54:15;;;;;;;9.52;7.63;;;19.90;99.90;;;;;;4937782;29;20111;-77
2021/09/27 09:56:46;;;;;;;9.43;7.53;;;20.00;99.90;;;;;;4934225;29;20396;-77
2021/09/27 09:59:28;;;;;;;8.38;7.63;;;20.10;99.90;;;;;;4933412;29;20419;-77
2021/09/27 10:01:56;;;;;;;7.68;6.88;;;20.20;99.90;;;;;;4934010;29;20087;-78
2021/09/27 10:04:42;;;;;;;7.82;7.03;;;20.20;99.90;;;;;;4934082;29;20027;-77
2021/09/27 10:07:17;;;;;;;7.20;6.57;;;20.30;99.90;;;;;;4934955;29;20024;-78
2021/09/27 10:09:50;;;;;;;7.72;6.90;;;20.40;99.90;;;;;;4935498;29;20027;-77
2021/09/27 10:12:47;;;;;;;6.80;6.07;;;20.40;99.90;;;;;;4933134;29;20401;-77
2021/09/27 10:15:36;;;;;;;6.78;6.18;;;20.40;99.90;;;;;;4934086;29;20024;-78
2021/09/27 10:18:03;;;;;;;6.43;5.50;;;20.50;99.90;;;;;;4933757;29;20047;-76
2021/09/27 10:20:35;;;;;;;6.10;5.55;;;20.60;99.90;;;;;;4936091;29;20552;-78
2021/09/27 10:23:05;;;;;;;10.85;6.32;;;20.70;99.90;;;;;;4933512;29;20083;-78
2021/09/27 10:25:45;;;;;;;6.40;5.80;;;20.70;99.90;;;;;;4935302;29;20135;-76
2021/09/27 10:28:16;;;;;;;6.90;6.20;;;20.70;99.90;;;;;;4933457;29;20046;-77
2021/09/27 10:31:04;;;;;;;6.60;5.90;;;20.60;99.90;;;;;;4935338;29;20020;-77
2021/09/27 10:33:33;;;;;;;6.85;5.70;;;20.50;99.90;;;;;;4933033;29;20170;-78
2021/09/27 10:36:17;;;;;;;5.13;4.63;;;20.50;99.90;;;;;;4933347;29;20020;-78
2021/09/27 10:38:51;;;;;;;6.38;5.00;;;20.50;99.90;;;;;;4934472;29;20024;-77
2021/09/27 10:41:19;;;;;;;4.55;4.07;;;20.50;99.90;;;;;;4934021;29;20546;-77
2021/09/27 10:43:46;;;;;;;4.80;3.83;;;20.40;99.90;;;;;;4933696;29;20126;-77
2021/09/27 10:46:14;;;;;;;5.03;4.53;;;20.40;99.90;;;;;;4930799;29;20083;-77
2021/09/27 10:48:44;;;;;;;4.93;4.30;;;20.40;99.90;;;;;;4934858;29;20075;-77
2021/09/27 10:51:10;;;;;;;9.32;4.75;;;20.30;99.90;;;;;;4933087;29;20030;-77
2021/09/27 10:53:52;;;;;;;4.55;4.13;;;20.30;99.90;;;;;;4932971;29;20067;-76
2021/09/27 10:56:47;;;;;;;5.13;4.40;;;20.30;99.90;;;;;;4932920;29;20159;-77
2021/09/27 10:59:27;;;;;;;5.93;4.55;;;20.20;99.90;;;;;;4932529;29;20035;-77
2021/09/27 11:01:54;;;;;;;4.70;3.95;;;20.20;99.90;;;;;;4933230;29;20388;-76
2021/09/27 11:04:23;;;;;;;5.47;4.43;;;20.20;99.90;;;;;;4934573;29;20479;-77
2021/09/27 11:06:52;;;;;;;4.55;3.72;;;20.20;99.90;;;;;;4934120;29;20443;-77
2021/09/27 11:09:38;;;;;;;4.18;3.78;;;20.30;99.90;;;;;;4933946;29;20420;-77
2021/09/27 11:12:29;;;;;;;4.07;3.67;;;20.30;99.90;;;;;;4934255;29;20028;-76
2021/09/27 11:15:20;;;;;;;5.40;4.32;;;20.30;99.90;;;;;;4933574;29;20480;-75
2021/09/27 11:17:48;;;;;;;6.25;3.50;;;20.40;99.90;;;;;;4934617;29;20071;-76
2021/09/27 11:20:21;;;;;;;4.43;3.17;;;20.40;99.90;;;;;;4932185;29;20114;-76
2021/09/27 11:22:56;;;;;;;4.70;3.58;;;20.40;99.90;;;;;;4932907;29;20035;-76
2021/09/27 11:25:21;;;;;;;3.92;3.47;;;20.50;99.90;;;;;;4934894;29;20027;-75
2021/09/27 11:28:10;;;;;;;4.90;4.18;;;20.50;99.90;;;;;;4932481;29;20607;-77
2021/09/27 11:30:58;;;;;;;5.00;3.72;;;20.60;99.90;;;;;;4929443;29;20036;-76
2021/09/27 11:33:29;;;;;;;6.18;3.25;;;20.50;99.90;;;;;;4933259;29;20388;-76
2021/09/27 11:35:59;;;;;;;3.33;3.03;;;20.60;99.90;;;;;;4933350;29;20020;-76
2021/09/27 11:38:30;;;;;;;6.75;3.55;;;20.60;99.90;;;;;;4933434;29;20027;-76
2021/09/27 11:41:11;;;;;;;4.00;3.50;;;20.60;99.90;;;;;;4933976;29;20020;-77
2021/09/27 11:43:56;;;;;;;3.65;3.20;;;20.70;99.90;;;;;;4934278;29;20036;-76
2021/09/27 11:46:30;;;;;;;4.00;3.60;;;20.70;99.90;;;;;;4934258;29;20079;-77
2021/09/27 11:49:28;;;;;;;6.95;3.90;;;20.80;99.90;;;;;;4933177;29;20038;-76
2021/09/27 11:52:06;;;;;;;4.95;3.47;;;20.90;99.90;;;;;;4926062;29;20396;-76
2021/09/27 11:54:55;;;;;;;4.70;3.03;;;21.00;99.90;;;;;;4933162;29;20032;-75
2021/09/27 11:57:41;;;;;;;3.80;2.92;;;21.10;99.90;;;;;;4933954;29;20086;-78
2021/09/27 12:00:15;;;;;;;6.85;3.30;;;21.10;99.90;;;;;;4933946;29;20032;-76
2021/09/27 12:03:23;;;;;;;4.80;2.97;;;21.10;99.90;;;;;;4933162;29;20123;-78
2021/09/27 12:06:28;;;;;;;4.38;3.25;;;21.10;99.90;;;;;;4934149;29;20052;-77
2021/09/27 12:09:04;;;;;;;5.85;2.53;;;21.10;99.90;;;;;;4905605;29;20047;-77
2021/09/27 12:11:45;;;;;;;3.83;2.58;;;21.10;99.90;;;;;;4935793;29;20032;-78
2021/09/27 12:14:18;;;;;;;3.63;2.55;;;21.00;99.90;;;;;;4936056;29;20134;-78
2021/09/27 12:16:48;;;;;;;2.30;2.10;;;21.10;99.90;;;;;;4936596;29;20103;-77
2021/09/27 12:19:23;;;;;;;2.72;2.22;;;21.10;99.90;;;;;;4935803;29;20039;-78
2021/09/27 12:21:53;;;;;;;2.60;2.20;;;21.00;99.90;;;;;;4936131;29;20024;-78
2021/09/27 12:24:30;;;;;;;4.07;2.42;;;21.00;99.90;;;;;;4935727;29;20038;-77
2021/09/27 12:27:21;;;;;;;3.47;2.30;;;21.00;99.90;;;;;;4935600;29;20056;-77
2021/09/27 12:29:52;;;;;;;2.80;2.27;;;21.00;99.90;;;;;;4935722;29;20511;-77
2021/09/27 12:32:30;;;;;;;2.58;2.22;;;21.00;99.90;;;;;;4935131;29;20120;-78
2021/09/27 12:34:59;;;;;;;2.40;2.20;;;21.00;99.90;;;;;;4935539;29;20023;-79
2021/09/27 12:37:31;;;;;;;2.60;2.17;;;21.10;99.90;;;;;;4935394;29;20071;-79
2021/09/27 12:39:59;;;;;;;4.50;2.05;;;21.10;99.90;;;;;;4935380;29;20075;-77
2021/09/27 12:42:28;;;;;;;2.83;2.35;;;21.20;99.90;;;;;;4935635;29;20036;-78
2021/09/27 12:45:03;;;;;;;3.72;2.50;;;21.30;99.90;;;;;;4934716;29;20044;-76
2021/09/27 12:47:29;;;;;;;4.97;2.22;;;21.30;99.90;;;;;;4935672;29;20042;-78
2021/09/27 12:49:58;;;;;;;5.32;2.75;;;21.40;99.90;;;;;;4936392;29;20444;-77
2021/09/27 12:52:30;;;;;;;3.50;2.13;;;21.50;99.90;;;;;;4936344;29;20031;-78
2021/09/27 12:54:56;;;;;;;2.10;1.90;;;21.50;99.90;;;;;;4935150;29;20496;-77
2021/09/27 12:57:40;;;;;;;2.65;2.38;;;21.60;99.90;;;;;;4936711;29;20023;-77
2021/09/27 13:00:12;;;;;;;4.25;2.70;;;21.70;99.90;;;;;;4934661;29;20083;-78
2021/09/27 13:02:42;;;;;;;4.05;2.22;;;21.60;99.90;;;;;;4936595;29;20039;-78
2021/09/27 13:05:18;;;;;;;2.53;2.33;;;21.60;99.90;;;;;;4934906;29;20028;-78
2021/09/27 13:07:50;;;;;;;2.63;2.00;;;21.60;99.90;;;;;;4935590;29;20436;-78
2021/09/27 13:10:23;;;;;;;3.08;2.10;;;21.60;99.90;;;;;;4935551;29;20038;-79
2021/09/27 13:13:04;;;;;;;3.45;2.38;;;21.60;99.90;;;;;;4934593;29;20023;-78
2021/09/27 13:15:50;;;;;;;2.47;2.28;;;21.60;99.90;;;;;;4935173;29;20543;-78
2021/09/27 13:18:24;;;;;;;4.40;2.28;;;21.50;99.90;;;;;;4934853;29;20035;-78
2021/09/27 13:21:00;;;;;;;4.70;2.80;;;21.40;99.90;;;;;;4933663;29;20036;-77
2021/09/27 13:23:42;;;;;;;2.22;2.03;;;21.40;99.90;;;;;;4935345;29;20039;-77
2021/09/27 13:26:41;;;;;;;2.30;2.13;;;21.40;99.90;;;;;;4934648;29;20035;-77
2021/09/27 13:29:34;;;;;;;4.82;3.15;;;21.30;99.90;;;;;;4934078;29;20067;-77
2021/09/27 13:31:59;;;;;;;4.30;2.45;;;21.10;99.90;;;;;;4935816;29;20020;-77
2021/09/27 13:34:50;;;;;;;2.55;2.30;;;21.10;99.90;;;;;;4934169;29;20122;-77
2021/09/27 13:37:38;;;;;;;3.38;2.58;;;21.00;99.90;;;;;;4934622;29;20106;-76